Time;durP1;ratioP1;P1;durP2;ratioP2;P2;SDS_P1;SDS_P2;PMS_P1;PMS_P2;Temp;Humidity;BMP_temperature;BMP_pressure;BME280_temperature;BME280_humidity;BME280_pressure;Samples;Min_cycle;Max_cycle;Signal;HPM_P1;HPM_P2
2024/03/22 00:01:19;;;;;;;37.38;13.18;;;;;;;;;;5011185;28;20123;-63
2024/03/22 00:03:45;;;;;;;36.60;14.05;;;;;;;;;;5009697;28;20054;-65
2024/03/22 00:06:12;;;;;;;40.70;14.27;;;;;;;;;;4990829;28;20073;-63
2024/03/22 00:08:41;;;;;;;34.67;13.18;;;;;;;;;;5005516;28;21147;-65
2024/03/22 00:11:09;;;;;;;41.97;15.32;;;;;;;;;;4995024;28;20046;-64
2024/03/22 00:13:35;;;;;;;39.85;14.32;;;;;;;;;;4982394;28;20055;-65
2024/03/22 00:16:01;;;;;;;41.97;15.10;;;;;;;;;;5002703;28;20054;-65
2024/03/22 00:18:27;;;;;;;34.30;12.15;;;;;;;;;;4975792;28;20084;-64
2024/03/22 00:20:54;;;;;;;38.33;14.48;;;;;;;;;;5015110;28;20054;-64
2024/03/22 00:23:19;;;;;;;38.92;14.38;;;;;;;;;;4985401;28;20062;-64
2024/03/22 00:25:46;;;;;;;40.70;14.68;;;;;;;;;;4979570;28;20396;-65
2024/03/22 00:28:13;;;;;;;37.13;13.27;;;;;;;;;;5013857;28;20097;-64
2024/03/22 00:30:40;;;;;;;35.28;13.38;;;;;;;;;;4976323;28;20064;-64
2024/03/22 00:33:06;;;;;;;39.17;13.75;;;;;;;;;;4982428;28;20038;-64
2024/03/22 00:35:32;;;;;;;35.63;14.13;;;;;;;;;;4980050;28;20100;-64
2024/03/22 00:38:00;;;;;;;34.50;14.55;;;;;;;;;;4978821;28;20137;-64
2024/03/22 00:40:26;;;;;;;41.55;14.73;;;;;;;;;;4976140;28;20050;-65
2024/03/22 00:42:52;;;;;;;38.17;13.68;;;;;;;;;;4985063;28;20117;-64
2024/03/22 00:45:20;;;;;;;36.00;14.50;;;;;;;;;;4976748;28;20070;-64
2024/03/22 00:47:46;;;;;;;37.65;15.45;;;;;;;;;;4981150;28;20058;-65
2024/03/22 00:50:13;;;;;;;40.72;14.25;;;;;;;;;;4979968;28;20167;-64
2024/03/22 00:52:39;;;;;;;40.47;14.88;;;;;;;;;;4978901;28;20265;-65
2024/03/22 00:55:06;;;;;;;45.42;15.18;;;;;;;;;;4981274;28;20129;-64
2024/03/22 00:57:32;;;;;;;37.75;14.18;;;;;;;;;;4980246;28;20062;-66
2024/03/22 00:59:58;;;;;;;33.78;13.35;;;;;;;;;;4980744;28;20116;-65
2024/03/22 01:02:25;;;;;;;40.90;14.38;;;;;;;;;;4972456;28;20062;-65
2024/03/22 01:04:52;;;;;;;43.15;14.75;;;;;;;;;;4980946;28;20216;-66
2024/03/22 01:07:18;;;;;;;42.97;15.15;;;;;;;;;;4976405;28;20062;-65
2024/03/22 01:09:44;;;;;;;40.17;14.70;;;;;;;;;;4982122;28;20050;-65
2024/03/22 01:12:10;;;;;;;43.13;14.75;;;;;;;;;;4981789;28;20065;-64
2024/03/22 01:14:37;;;;;;;40.25;16.25;;;;;;;;;;4977799;28;20066;-65
2024/03/22 01:17:03;;;;;;;41.20;14.48;;;;;;;;;;5008289;28;20057;-64
2024/03/22 01:19:31;;;;;;;42.80;14.82;;;;;;;;;;4981032;28;20062;-63
2024/03/22 01:21:57;;;;;;;37.85;14.30;;;;;;;;;;4982416;28;20049;-64
2024/03/22 01:24:24;;;;;;;41.30;14.57;;;;;;;;;;4976112;28;20069;-65
2024/03/22 01:26:49;;;;;;;42.03;14.30;;;;;;;;;;4973591;28;20069;-65
2024/03/22 01:29:16;;;;;;;41.10;15.70;;;;;;;;;;4982327;28;20066;-65
2024/03/22 01:31:42;;;;;;;38.45;14.93;;;;;;;;;;4980886;28;20077;-65
2024/03/22 01:34:08;;;;;;;39.95;15.35;;;;;;;;;;4982200;28;20953;-65
2024/03/22 01:36:35;;;;;;;41.60;15.40;;;;;;;;;;4970953;28;20122;-64
2024/03/22 01:39:02;;;;;;;36.53;14.50;;;;;;;;;;5013285;28;20062;-64
2024/03/22 01:41:28;;;;;;;36.40;14.18;;;;;;;;;;4980243;28;20050;-64
2024/03/22 01:43:55;;;;;;;37.17;14.93;;;;;;;;;;4982005;28;20054;-64
2024/03/22 01:46:20;;;;;;;42.97;15.93;;;;;;;;;;4971383;28;20933;-65
2024/03/22 01:48:47;;;;;;;35.25;14.25;;;;;;;;;;4979727;28;20066;-65
2024/03/22 01:51:13;;;;;;;40.00;15.43;;;;;;;;;;4980843;28;20189;-64
2024/03/22 01:53:42;;;;;;;35.10;13.38;;;;;;;;;;4983416;28;20066;-64
2024/03/22 01:56:07;;;;;;;;;;;;;;;;;;4976790;28;20130;-64
2024/03/22 01:58:34;;;;;;;34.83;12.88;;;;;;;;;;4974125;28;19929;-65
2024/03/22 02:01:00;;;;;;;41.97;15.32;;;;;;;;;;4981473;28;20068;-64
2024/03/22 02:03:27;;;;;;;41.95;15.00;;;;;;;;;;4982741;28;20539;-65
2024/03/22 02:05:52;;;;;;;39.03;14.27;;;;;;;;;;4975626;28;20061;-66
2024/03/22 02:08:19;;;;;;;41.13;14.80;;;;;;;;;;4972888;28;20054;-64
2024/03/22 02:10:46;;;;;;;40.58;15.35;;;;;;;;;;4980031;28;20172;-63
2024/03/22 02:13:13;;;;;;;38.92;14.95;;;;;;;;;;4981705;28;20066;-65
2024/03/22 02:15:39;;;;;;;38.33;14.50;;;;;;;;;;4977769;28;20062;-64
2024/03/22 02:18:06;;;;;;;43.22;14.35;;;;;;;;;;4983298;28;21137;-65
2024/03/22 02:20:31;;;;;;;41.28;14.45;;;;;;;;;;4973489;28;20046;-64
2024/03/22 02:22:58;;;;;;;41.20;14.77;;;;;;;;;;4982133;28;20144;-64
2024/03/22 02:25:25;;;;;;;40.22;14.45;;;;;;;;;;4976563;28;20068;-64
2024/03/22 02:27:52;;;;;;;40.60;14.57;;;;;;;;;;4978415;28;20175;-64
2024/03/22 02:30:18;;;;;;;38.70;13.93;;;;;;;;;;4975038;28;20505;-66
2024/03/22 02:32:44;;;;;;;34.80;14.23;;;;;;;;;;4980126;28;20119;-65
2024/03/22 02:35:11;;;;;;;40.75;14.75;;;;;;;;;;4979683;28;20196;-64
2024/03/22 02:37:38;;;;;;;34.72;14.30;;;;;;;;;;4948876;28;20065;-65
2024/03/22 02:40:04;;;;;;;41.85;14.88;;;;;;;;;;4979343;28;20050;-65
2024/03/22 02:42:32;;;;;;;40.30;14.85;;;;;;;;;;4972970;28;20062;-65
2024/03/22 02:44:58;;;;;;;40.67;14.75;;;;;;;;;;4978454;28;20057;-64
2024/03/22 02:47:24;;;;;;;36.90;13.63;;;;;;;;;;4969228;28;20059;-64
2024/03/22 02:49:50;;;;;;;38.20;14.25;;;;;;;;;;4994557;28;20124;-63
2024/03/22 02:52:17;;;;;;;33.75;14.63;;;;;;;;;;4994261;28;20090;-65
2024/03/22 02:54:43;;;;;;;41.45;14.90;;;;;;;;;;4975644;28;20109;-64
2024/03/22 02:57:10;;;;;;;38.95;14.68;;;;;;;;;;4975074;28;20112;-65
2024/03/22 02:59:37;;;;;;;37.42;14.88;;;;;;;;;;5010317;28;20112;-65
2024/03/22 03:02:03;;;;;;;37.63;14.32;;;;;;;;;;4980127;28;20178;-64
2024/03/22 03:04:29;;;;;;;32.70;14.73;;;;;;;;;;4946889;28;20169;-65
2024/03/22 03:06:56;;;;;;;35.35;13.60;;;;;;;;;;4980910;28;20144;-65
2024/03/22 03:09:21;;;;;;;33.42;13.55;;;;;;;;;;4978149;28;20180;-64
2024/03/22 03:11:48;;;;;;;33.83;13.82;;;;;;;;;;4975720;28;20058;-65
2024/03/22 03:14:14;;;;;;;33.35;13.93;;;;;;;;;;4974300;28;20150;-66
2024/03/22 03:16:42;;;;;;;30.17;12.93;;;;;;;;;;4996249;28;21064;-64
2024/03/22 03:19:08;;;;;;;33.08;13.48;;;;;;;;;;4977865;28;20066;-65
2024/03/22 03:21:35;;;;;;;36.08;13.85;;;;;;;;;;4977811;28;20058;-64
2024/03/22 03:24:00;;;;;;;33.00;13.32;;;;;;;;;;4989707;28;20137;-64
2024/03/22 03:26:27;;;;;;;34.40;14.05;;;;;;;;;;4978647;28;20069;-65
2024/03/22 03:28:54;;;;;;;32.67;13.02;;;;;;;;;;4979280;28;20150;-64
2024/03/22 03:31:21;;;;;;;36.72;13.95;;;;;;;;;;4981856;28;20057;-64
2024/03/22 03:33:48;;;;;;;32.45;13.55;;;;;;;;;;4967892;28;20159;-65
2024/03/22 03:36:15;;;;;;;41.63;16.15;;;;;;;;;;4978345;28;20058;-64
2024/03/22 03:38:41;;;;;;;38.10;14.55;;;;;;;;;;5012725;28;20069;-64
2024/03/22 03:41:08;;;;;;;34.67;13.80;;;;;;;;;;4992532;28;20054;-65
2024/03/22 03:43:34;;;;;;;31.90;13.70;;;;;;;;;;4978134;28;20053;-65
2024/03/22 03:46:01;;;;;;;35.83;14.35;;;;;;;;;;4975012;28;20062;-65
2024/03/22 03:48:26;;;;;;;39.53;14.75;;;;;;;;;;4995051;28;20117;-68
2024/03/22 03:50:55;;;;;;;35.70;13.73;;;;;;;;;;4984133;28;20149;-66
2024/03/22 03:53:21;;;;;;;34.50;12.77;;;;;;;;;;4987209;28;20058;-67
2024/03/22 03:55:48;;;;;;;32.53;13.48;;;;;;;;;;5012764;28;20064;-66
2024/03/22 03:58:13;;;;;;;36.78;15.00;;;;;;;;;;4980263;28;20066;-66
2024/03/22 04:00:40;;;;;;;30.33;12.73;;;;;;;;;;4980635;28;20058;-65
2024/03/22 04:03:06;;;;;;;35.63;12.90;;;;;;;;;;5000348;28;20073;-66
2024/03/22 04:05:32;;;;;;;44.55;14.60;;;;;;;;;;4977186;28;20165;-66
2024/03/22 04:08:00;;;;;;;35.92;14.50;;;;;;;;;;4989965;28;20050;-66
2024/03/22 04:10:26;;;;;;;33.65;14.40;;;;;;;;;;4981607;28;20058;-66
2024/03/22 04:12:52;;;;;;;42.92;14.45;;;;;;;;;;5016778;28;20058;-67
2024/03/22 04:15:19;;;;;;;39.17;15.00;;;;;;;;;;4977954;28;20062;-66
2024/03/22 04:17:44;;;;;;;33.35;13.63;;;;;;;;;;4973704;28;20058;-67
2024/03/22 04:20:12;;;;;;;32.97;14.52;;;;;;;;;;4979049;28;20073;-66
2024/03/22 04:22:38;;;;;;;40.22;14.45;;;;;;;;;;4981411;28;20104;-65
2024/03/22 04:25:09;;;;;;;35.72;13.38;;;;;;;;;;5010843;28;20046;-64
2024/03/22 04:27:36;;;;;;;39.35;13.35;;;;;;;;;;4982212;28;20050;-65
2024/03/22 04:30:03;;;;;;;39.70;14.10;;;;;;;;;;4975200;28;20308;-65
2024/03/22 04:32:31;;;;;;;31.63;13.07;;;;;;;;;;4982318;28;20077;-64
2024/03/22 04:34:57;;;;;;;31.48;13.25;;;;;;;;;;4977119;28;20197;-64
2024/03/22 04:37:24;;;;;;;35.63;14.75;;;;;;;;;;4984412;28;20129;-64
2024/03/22 04:39:51;;;;;;;36.60;14.95;;;;;;;;;;4978383;28;20049;-65
2024/03/22 04:42:19;;;;;;;34.00;14.27;;;;;;;;;;4982786;28;20144;-64
2024/03/22 04:44:46;;;;;;;39.80;15.90;;;;;;;;;;4977332;28;20058;-64
2024/03/22 04:47:12;;;;;;;34.97;13.63;;;;;;;;;;4982189;28;20121;-64
2024/03/22 04:49:39;;;;;;;27.20;12.57;;;;;;;;;;4979618;28;20114;-64
2024/03/22 04:52:05;;;;;;;35.47;13.50;;;;;;;;;;4978788;28;20057;-64
2024/03/22 04:54:32;;;;;;;34.80;12.68;;;;;;;;;;5010439;28;20061;-64
2024/03/22 04:56:59;;;;;;;38.83;14.20;;;;;;;;;;4981679;28;20061;-65
2024/03/22 04:59:28;;;;;;;31.73;13.40;;;;;;;;;;4983284;28;20057;-64
2024/03/22 05:01:53;;;;;;;;;;;;;;;;;;4978697;28;20461;-65
2024/03/22 05:04:20;;;;;;;37.85;13.60;;;;;;;;;;4976495;28;20074;-63
2024/03/22 05:06:46;;;;;;;32.08;12.40;;;;;;;;;;5016768;28;20062;-64
2024/03/22 05:09:12;;;;;;;33.17;12.45;;;;;;;;;;4980899;28;20116;-64
2024/03/22 05:11:38;;;;;;;29.50;11.85;;;;;;;;;;4995659;28;20064;-64
2024/03/22 05:14:05;;;;;;;32.70;14.63;;;;;;;;;;4974104;28;20050;-64
2024/03/22 05:16:32;;;;;;;26.90;10.45;;;;;;;;;;4979981;28;20062;-66
2024/03/22 05:18:59;;;;;;;31.50;13.23;;;;;;;;;;5014545;28;20054;-66
2024/03/22 05:21:24;;;;;;;30.48;11.88;;;;;;;;;;4981431;28;20143;-66
2024/03/22 05:23:51;;;;;;;35.53;12.98;;;;;;;;;;4969673;28;20062;-64
2024/03/22 05:26:18;;;;;;;25.90;11.35;;;;;;;;;;4981136;28;20180;-64
2024/03/22 05:28:45;;;;;;;32.72;13.43;;;;;;;;;;4982796;28;20062;-63
2024/03/22 05:31:10;;;;;;;31.00;12.45;;;;;;;;;;4978764;28;20063;-64
2024/03/22 05:33:39;;;;;;;30.75;12.13;;;;;;;;;;4993681;28;20216;-65
2024/03/22 05:36:05;;;;;;;29.50;12.55;;;;;;;;;;5011342;28;20054;-64
2024/03/22 05:38:31;;;;;;;37.75;15.57;;;;;;;;;;4981649;28;20074;-64
2024/03/22 05:40:57;;;;;;;36.20;13.00;;;;;;;;;;4978550;28;20168;-64
2024/03/22 05:43:24;;;;;;;33.30;11.85;;;;;;;;;;4996251;28;20129;-64
2024/03/22 05:45:50;;;;;;;33.83;12.57;;;;;;;;;;4960429;28;20058;-63
2024/03/22 05:48:16;;;;;;;28.98;10.85;;;;;;;;;;4968138;28;20054;-64
2024/03/22 05:50:44;;;;;;;32.83;11.73;;;;;;;;;;5000125;28;20055;-64
2024/03/22 05:53:10;;;;;;;30.40;11.52;;;;;;;;;;4967406;28;20050;-64
2024/03/22 05:55:41;;;;;;;30.92;13.18;;;;;;;;;;4980208;28;20080;-63
2024/03/22 05:58:09;;;;;;;30.95;11.85;;;;;;;;;;4976046;28;20081;-64
2024/03/22 06:00:35;;;;;;;29.40;11.52;;;;;;;;;;4977135;28;20058;-64
2024/03/22 06:03:02;;;;;;;30.95;12.07;;;;;;;;;;4976795;28;20092;-65
2024/03/22 06:05:30;;;;;;;26.63;10.63;;;;;;;;;;4972829;28;20058;-64
2024/03/22 06:07:58;;;;;;;27.30;10.77;;;;;;;;;;4985377;28;20381;-63
2024/03/22 06:10:24;;;;;;;25.60;10.65;;;;;;;;;;4992249;28;20162;-64
2024/03/22 06:12:51;;;;;;;33.67;12.57;;;;;;;;;;4978134;28;20058;-64
2024/03/22 06:15:17;;;;;;;34.10;11.85;;;;;;;;;;4957710;28;20067;-64
2024/03/22 06:17:45;;;;;;;27.17;11.10;;;;;;;;;;4980556;28;20046;-64
2024/03/22 06:20:11;;;;;;;;;;;;;;;;;;4965372;28;20066;-64
2024/03/22 06:22:38;;;;;;;32.75;11.73;;;;;;;;;;4966800;28;20789;-64
2024/03/22 06:25:06;;;;;;;27.90;10.95;;;;;;;;;;4969130;28;20070;-65
2024/03/22 06:27:32;;;;;;;26.20;11.33;;;;;;;;;;4974752;28;20066;-66
2024/03/22 06:29:58;;;;;;;28.73;11.48;;;;;;;;;;4993015;28;20049;-64
2024/03/22 06:32:25;;;;;;;31.40;12.02;;;;;;;;;;4992176;28;20088;-65
2024/03/22 06:34:51;;;;;;;41.88;16.05;;;;;;;;;;4949891;28;20054;-64
2024/03/22 06:37:18;;;;;;;24.55;10.95;;;;;;;;;;4970038;28;20054;-64
2024/03/22 06:39:44;;;;;;;26.20;10.18;;;;;;;;;;4980981;28;20070;-64
2024/03/22 06:42:13;;;;;;;26.00;11.45;;;;;;;;;;4969788;28;20058;-64
2024/03/22 06:44:39;;;;;;;28.55;11.15;;;;;;;;;;4996414;28;20168;-63
2024/03/22 06:47:06;;;;;;;28.92;11.10;;;;;;;;;;4967032;28;20085;-64
2024/03/22 06:49:32;;;;;;;23.88;10.32;;;;;;;;;;4968193;28;20066;-64
2024/03/22 06:51:58;;;;;;;27.85;10.57;;;;;;;;;;4976097;28;20047;-64
2024/03/22 06:54:25;;;;;;;27.55;10.35;;;;;;;;;;4969897;28;20295;-64
2024/03/22 06:56:52;;;;;;;27.45;11.15;;;;;;;;;;4981829;28;20141;-64
2024/03/22 06:59:19;;;;;;;30.85;10.32;;;;;;;;;;4994158;28;20093;-64
2024/03/22 07:01:46;;;;;;;27.55;10.55;;;;;;;;;;4974265;28;20066;-63
2024/03/22 07:04:12;;;;;;;27.10;11.32;;;;;;;;;;4991678;28;20095;-65
2024/03/22 07:06:38;;;;;;;26.75;11.25;;;;;;;;;;4979716;28;20228;-65
2024/03/22 07:09:07;;;;;;;26.77;10.90;;;;;;;;;;4976920;28;20085;-64
2024/03/22 07:11:34;;;;;;;26.35;11.35;;;;;;;;;;4980826;28;20066;-64
2024/03/22 07:14:03;;;;;;;29.77;11.80;;;;;;;;;;4971990;28;20054;-66
2024/03/22 07:16:31;;;;;;;26.30;10.88;;;;;;;;;;4968641;28;20065;-65
2024/03/22 07:18:56;;;;;;;32.75;10.90;;;;;;;;;;4969307;28;20116;-63
2024/03/22 07:21:23;;;;;;;30.92;10.88;;;;;;;;;;4984280;28;20062;-64
2024/03/22 07:23:50;;;;;;;28.83;11.57;;;;;;;;;;4966055;28;20147;-65
2024/03/22 07:26:17;;;;;;;24.20;11.13;;;;;;;;;;4983884;28;20050;-64
2024/03/22 07:28:42;;;;;;;27.13;11.00;;;;;;;;;;4986945;28;20062;-64
2024/03/22 07:31:09;;;;;;;30.27;10.60;;;;;;;;;;4998554;28;20104;-65
2024/03/22 07:33:40;;;;;;;32.58;12.82;;;;;;;;;;4993434;28;20176;-64
2024/03/22 07:36:07;;;;;;;25.73;10.48;;;;;;;;;;4997780;28;21090;-64
2024/03/22 07:38:33;;;;;;;23.60;9.73;;;;;;;;;;4983301;28;20409;-64
2024/03/22 07:41:00;;;;;;;27.17;10.93;;;;;;;;;;4981204;28;20050;-65
2024/03/22 07:43:26;;;;;;;25.58;10.15;;;;;;;;;;4978335;28;20053;-66
2024/03/22 07:45:52;;;;;;;31.75;12.00;;;;;;;;;;4981380;28;20054;-65
2024/03/22 07:48:18;;;;;;;29.15;11.02;;;;;;;;;;4971718;28;20054;-66
2024/03/22 07:50:46;;;;;;;27.98;11.07;;;;;;;;;;4977205;28;20978;-65
2024/03/22 07:53:13;;;;;;;;;;;;;;;;;;4989865;28;20053;-65
2024/03/22 07:55:40;;;;;;;26.52;9.90;;;;;;;;;;4977169;28;19953;-65
2024/03/22 07:58:06;;;;;;;31.30;11.75;;;;;;;;;;4980489;28;20439;-64
2024/03/22 08:00:33;;;;;;;27.85;10.82;;;;;;;;;;4984081;28;20066;-64
2024/03/22 08:02:58;;;;;;;26.63;10.88;;;;;;;;;;4987584;28;20046;-64
2024/03/22 08:05:28;;;;;;;23.88;9.38;;;;;;;;;;4980329;28;20061;-65
2024/03/22 08:07:55;;;;;;;32.90;11.20;;;;;;;;;;4976895;28;20062;-63
2024/03/22 08:10:23;;;;;;;25.58;10.25;;;;;;;;;;4985890;28;20176;-65
2024/03/22 08:12:49;;;;;;;33.28;10.18;;;;;;;;;;4984022;28;20069;-65
2024/03/22 08:15:15;;;;;;;30.90;11.65;;;;;;;;;;4979022;28;20058;-63
2024/03/22 08:17:41;;;;;;;26.10;10.55;;;;;;;;;;4998207;28;20901;-66
2024/03/22 08:20:09;;;;;;;32.97;13.13;;;;;;;;;;4986737;28;20104;-66
2024/03/22 08:22:34;;;;;;;27.77;11.88;;;;;;;;;;5001722;28;20065;-64
2024/03/22 08:25:04;;;;;;;28.65;11.35;;;;;;;;;;4977523;28;20069;-64
2024/03/22 08:27:29;;;;;;;35.83;13.95;;;;;;;;;;4996422;28;20152;-63
2024/03/22 08:29:56;;;;;;;31.17;11.88;;;;;;;;;;4978611;28;20120;-67
2024/03/22 08:32:22;;;;;;;34.17;12.55;;;;;;;;;;4981895;28;20065;-67
2024/03/22 08:34:49;;;;;;;34.85;13.27;;;;;;;;;;4963061;28;20038;-65
2024/03/22 08:37:14;;;;;;;32.47;13.77;;;;;;;;;;4980966;28;20058;-66
2024/03/22 08:39:42;;;;;;;33.13;12.48;;;;;;;;;;4979761;28;20054;-64
2024/03/22 08:42:09;;;;;;;32.88;13.98;;;;;;;;;;4981835;28;20062;-65
2024/03/22 08:44:36;;;;;;;31.52;11.43;;;;;;;;;;5001903;28;20057;-65
2024/03/22 08:47:02;;;;;;;35.67;14.13;;;;;;;;;;4982439;28;20066;-67
2024/03/22 08:49:31;;;;;;;37.95;12.93;;;;;;;;;;4984787;28;20054;-66
2024/03/22 08:51:56;;;;;;;;;;;;;;;;;;4974522;28;20177;-65
2024/03/22 08:54:23;;;;;;;31.80;12.35;;;;;;;;;;4976140;28;19988;-64
2024/03/22 08:56:48;;;;;;;35.47;12.80;;;;;;;;;;4982451;28;20070;-65
2024/03/22 08:59:16;;;;;;;34.45;13.60;;;;;;;;;;4981648;28;20082;-64
2024/03/22 09:01:42;;;;;;;34.35;13.80;;;;;;;;;;4977465;28;20062;-64
2024/03/22 09:04:09;;;;;;;33.13;13.38;;;;;;;;;;4972895;28;20081;-65
2024/03/22 09:06:34;;;;;;;30.10;13.38;;;;;;;;;;5005672;28;20062;-66
2024/03/22 09:09:03;;;;;;;36.53;13.63;;;;;;;;;;4972661;28;20134;-65
2024/03/22 09:11:29;;;;;;;30.00;12.77;;;;;;;;;;4972553;28;20062;-63
2024/03/22 09:13:56;;;;;;;33.22;13.32;;;;;;;;;;4965554;28;20073;-65
2024/03/22 09:16:23;;;;;;;34.90;15.85;;;;;;;;;;4983056;28;20158;-66
2024/03/22 09:18:50;;;;;;;34.92;13.70;;;;;;;;;;4982025;28;20050;-66
2024/03/22 09:21:16;;;;;;;40.15;14.00;;;;;;;;;;4981638;28;20075;-65
2024/03/22 09:23:45;;;;;;;36.35;14.00;;;;;;;;;;4975217;28;21025;-66
2024/03/22 09:26:12;;;;;;;31.90;13.57;;;;;;;;;;4983037;28;20073;-63
2024/03/22 09:28:39;;;;;;;40.80;15.32;;;;;;;;;;4981921;28;20061;-65
2024/03/22 09:31:05;;;;;;;36.70;14.68;;;;;;;;;;4981596;28;20058;-64
2024/03/22 09:33:38;;;;;;;34.40;14.73;;;;;;;;;;4975814;28;20065;-66
2024/03/22 09:36:04;;;;;;;31.50;14.27;;;;;;;;;;4985495;28;20054;-64
2024/03/22 09:38:30;;;;;;;38.78;14.15;;;;;;;;;;4968472;28;20159;-64
2024/03/22 09:40:58;;;;;;;32.55;14.35;;;;;;;;;;4970188;28;20157;-64
2024/03/22 09:43:28;;;;;;;32.88;13.55;;;;;;;;;;5000425;28;20065;-65
2024/03/22 09:45:55;;;;;;;29.55;12.48;;;;;;;;;;4968537;28;20065;-65
2024/03/22 09:48:23;;;;;;;32.85;13.93;;;;;;;;;;4971386;28;20202;-66
2024/03/22 09:50:53;;;;;;;29.55;13.00;;;;;;;;;;4974416;28;20070;-66
2024/03/22 09:53:21;;;;;;;32.03;13.73;;;;;;;;;;4970056;28;20054;-66
2024/03/22 09:55:47;;;;;;;32.25;13.95;;;;;;;;;;4971745;28;20058;-63
2024/03/22 09:58:14;;;;;;;36.80;14.50;;;;;;;;;;4981091;28;20093;-64
2024/03/22 10:00:40;;;;;;;40.75;14.40;;;;;;;;;;4996507;28;20061;-65
2024/03/22 10:03:08;;;;;;;35.53;13.68;;;;;;;;;;4985152;28;20050;-65
2024/03/22 10:05:35;;;;;;;27.98;11.40;;;;;;;;;;4998754;28;20054;-65
2024/03/22 10:08:05;;;;;;;30.65;13.30;;;;;;;;;;4984265;28;20288;-66
2024/03/22 10:10:31;;;;;;;24.60;11.18;;;;;;;;;;4970730;28;20058;-67
2024/03/22 10:13:00;;;;;;;26.55;11.73;;;;;;;;;;4970240;28;20188;-65
2024/03/22 10:15:26;;;;;;;28.25;10.60;;;;;;;;;;4968900;28;20185;-70
2024/03/22 10:17:55;;;;;;;31.98;14.02;;;;;;;;;;4999543;28;20297;-67
2024/03/22 10:20:20;;;;;;;32.83;12.30;;;;;;;;;;4985867;28;20192;-67
2024/03/22 10:22:49;;;;;;;21.75;10.40;;;;;;;;;;4971113;28;20112;-67
2024/03/22 10:25:17;;;;;;;25.00;10.73;;;;;;;;;;4975580;28;20160;-66
2024/03/22 10:27:44;;;;;;;20.52;9.00;;;;;;;;;;4980033;28;20264;-68
2024/03/22 10:30:12;;;;;;;24.13;9.45;;;;;;;;;;4982625;28;20057;-66
2024/03/22 10:32:39;;;;;;;22.85;9.02;;;;;;;;;;4983152;28;20058;-65
2024/03/22 10:35:06;;;;;;;26.20;10.10;;;;;;;;;;4978147;28;20076;-67
2024/03/22 10:37:34;;;;;;;25.60;9.77;;;;;;;;;;4996471;28;20072;-67
2024/03/22 10:40:03;;;;;;;19.83;9.25;;;;;;;;;;4976130;28;20176;-70
2024/03/22 10:42:34;;;;;;;14.18;6.45;;;;;;;;;;4999492;28;20185;-70
2024/03/22 10:45:00;;;;;;;20.73;9.10;;;;;;;;;;4989219;28;20049;-76
2024/03/22 10:47:31;;;;;;;22.83;8.80;;;;;;;;;;4980366;28;20056;-73
2024/03/22 10:50:07;;;;;;;18.48;8.40;;;;;;;;;;5010010;28;20081;-73
2024/03/22 10:52:39;;;;;;;17.25;8.63;;;;;;;;;;4977673;28;20053;-73
2024/03/22 10:55:12;;;;;;;18.40;8.13;;;;;;;;;;4918816;28;20062;-73
2024/03/22 10:57:41;;;;;;;20.02;8.10;;;;;;;;;;4993997;28;20054;-73
2024/03/22 11:00:12;;;;;;;20.67;7.53;;;;;;;;;;4977403;28;20058;-75
2024/03/22 11:02:44;;;;;;;19.30;8.32;;;;;;;;;;4983156;28;20065;-74
2024/03/22 11:05:16;;;;;;;13.50;6.40;;;;;;;;;;4978233;28;20050;-74
2024/03/22 11:07:49;;;;;;;15.10;6.75;;;;;;;;;;4977552;28;20050;-75
2024/03/22 11:10:16;;;;;;;11.93;6.38;;;;;;;;;;5014793;28;20050;-74
2024/03/22 11:12:49;;;;;;;14.45;6.53;;;;;;;;;;5013895;28;20054;-73
2024/03/22 11:15:18;;;;;;;16.38;6.63;;;;;;;;;;4963950;28;20128;-73
2024/03/22 11:17:44;;;;;;;;;;;;;;;;;;4981678;28;20163;-70
2024/03/22 11:20:12;;;;;;;14.52;6.03;;;;;;;;;;4977490;28;19926;-71
2024/03/22 11:22:39;;;;;;;15.40;6.17;;;;;;;;;;4980760;28;20065;-71
2024/03/22 11:25:13;;;;;;;12.75;6.30;;;;;;;;;;4998115;28;20062;-69
2024/03/22 11:27:43;;;;;;;12.00;5.70;;;;;;;;;;5010558;28;20077;-73
2024/03/22 11:30:11;;;;;;;12.30;5.55;;;;;;;;;;5011429;28;20089;-71
2024/03/22 11:32:43;;;;;;;11.23;5.32;;;;;;;;;;4983121;28;20167;-74
2024/03/22 11:35:11;;;;;;;15.13;5.72;;;;;;;;;;4971614;28;20057;-71
2024/03/22 11:37:39;;;;;;;10.77;4.95;;;;;;;;;;4981246;28;20118;-74
2024/03/22 11:40:06;;;;;;;;;;;;;;;;;;5013790;28;20053;-72
2024/03/22 11:42:34;;;;;;;9.77;4.43;;;;;;;;;;5013094;28;20264;-75
2024/03/22 11:45:02;;;;;;;9.77;4.60;;;;;;;;;;4981672;28;20049;-74
2024/03/22 11:47:30;;;;;;;10.00;4.85;;;;;;;;;;4986810;28;20054;-72
2024/03/22 11:49:56;;;;;;;11.93;4.93;;;;;;;;;;4971287;28;20117;-71
2024/03/22 11:52:26;;;;;;;12.68;4.15;;;;;;;;;;4979206;28;20058;-70
2024/03/22 11:54:52;;;;;;;11.30;4.43;;;;;;;;;;4982836;28;20058;-73
2024/03/22 11:57:19;;;;;;;10.40;4.78;;;;;;;;;;4976751;28;20061;-72
2024/03/22 11:59:45;;;;;;;8.70;4.25;;;;;;;;;;4975035;28;20069;-77
2024/03/22 12:02:12;;;;;;;9.23;4.30;;;;;;;;;;4980104;28;20050;-71
2024/03/22 12:04:44;;;;;;;11.07;4.68;;;;;;;;;;4972892;28;20050;-70
2024/03/22 12:07:12;;;;;;;9.10;3.85;;;;;;;;;;4970787;28;20061;-73
2024/03/22 12:09:39;;;;;;;10.35;4.60;;;;;;;;;;5002824;28;20073;-71
2024/03/22 12:12:08;;;;;;;6.85;3.63;;;;;;;;;;4971138;28;20050;-69
2024/03/22 12:14:35;;;;;;;10.05;4.47;;;;;;;;;;4993377;28;20149;-69
2024/03/22 12:17:03;;;;;;;7.90;3.72;;;;;;;;;;4972707;28;20490;-70
2024/03/22 12:19:32;;;;;;;7.43;3.80;;;;;;;;;;4992364;28;20062;-71
2024/03/22 12:22:01;;;;;;;7.35;3.95;;;;;;;;;;4970585;28;20305;-73
2024/03/22 12:24:27;;;;;;;8.25;3.97;;;;;;;;;;4973871;28;20057;-71
2024/03/22 12:26:54;;;;;;;10.38;5.00;;;;;;;;;;4981084;28;20065;-70
2024/03/22 12:29:20;;;;;;;9.77;3.80;;;;;;;;;;4981039;28;20468;-74
2024/03/22 12:31:48;;;;;;;10.07;3.78;;;;;;;;;;4974605;28;20069;-70
2024/03/22 12:34:17;;;;;;;7.97;3.65;;;;;;;;;;4969434;28;20071;-70
2024/03/22 12:36:44;;;;;;;7.38;3.08;;;;;;;;;;4993250;28;20172;-73
2024/03/22 12:39:11;;;;;;;7.55;3.50;;;;;;;;;;4980879;28;20058;-71
2024/03/22 12:41:43;;;;;;;7.18;3.05;;;;;;;;;;4984206;28;20054;-72
2024/03/22 12:44:09;;;;;;;6.95;3.53;;;;;;;;;;4931140;28;20210;-71
2024/03/22 12:46:36;;;;;;;7.68;2.90;;;;;;;;;;4994884;28;20054;-72
2024/03/22 12:49:02;;;;;;;6.72;3.08;;;;;;;;;;4983949;28;20107;-73
2024/03/22 12:51:28;;;;;;;6.72;3.17;;;;;;;;;;4983303;28;20054;-72
2024/03/22 12:53:55;;;;;;;7.22;3.08;;;;;;;;;;5001613;28;20062;-73
2024/03/22 12:56:23;;;;;;;9.43;3.88;;;;;;;;;;4997275;28;20064;-71
2024/03/22 12:58:50;;;;;;;7.53;3.47;;;;;;;;;;4982288;28;20077;-71
2024/03/22 13:01:16;;;;;;;7.68;3.40;;;;;;;;;;4982678;28;20054;-71
2024/03/22 13:03:45;;;;;;;7.75;3.40;;;;;;;;;;5013148;28;20046;-72
2024/03/22 13:06:11;;;;;;;6.57;3.05;;;;;;;;;;4989357;28;20117;-72
2024/03/22 13:08:38;;;;;;;9.48;3.88;;;;;;;;;;5015571;28;20062;-72
2024/03/22 13:11:04;;;;;;;8.05;3.03;;;;;;;;;;4980925;28;20054;-71
2024/03/22 13:13:33;;;;;;;3.28;1.80;;;;;;;;;;4981768;28;21063;-71
2024/03/22 13:16:06;;;;;;;4.15;1.92;;;;;;;;;;4947488;28;20070;-72
2024/03/22 13:18:34;;;;;;;4.13;2.28;;;;;;;;;;5012327;28;20054;-73
2024/03/22 13:21:03;;;;;;;6.22;2.78;;;;;;;;;;5014528;28;20077;-73
2024/03/22 13:23:30;;;;;;;4.82;2.28;;;;;;;;;;4982891;28;20058;-73
2024/03/22 13:25:58;;;;;;;4.82;2.17;;;;;;;;;;4966007;28;20095;-73
2024/03/22 13:28:26;;;;;;;3.35;1.95;;;;;;;;;;4982095;28;20049;-73
2024/03/22 13:31:02;;;;;;;4.37;2.10;;;;;;;;;;5010978;28;20054;-74
2024/03/22 13:33:29;;;;;;;6.88;2.38;;;;;;;;;;4973117;28;20066;-71
2024/03/22 13:35:55;;;;;;;5.00;2.38;;;;;;;;;;4958234;28;20394;-71
2024/03/22 13:38:23;;;;;;;7.45;2.45;;;;;;;;;;4972171;28;20054;-71
2024/03/22 13:40:58;;;;;;;5.22;2.38;;;;;;;;;;5009697;28;20292;-73
2024/03/22 13:43:27;;;;;;;5.68;2.42;;;;;;;;;;5010986;28;20065;-70
2024/03/22 13:45:55;;;;;;;5.63;2.70;;;;;;;;;;4969111;28;20179;-73
2024/03/22 13:48:25;;;;;;;8.60;3.05;;;;;;;;;;4984085;28;20050;-70
2024/03/22 13:50:51;;;;;;;7.97;3.10;;;;;;;;;;4979536;28;20577;-72
2024/03/22 13:53:18;;;;;;;7.00;3.53;;;;;;;;;;4978134;28;20108;-73
2024/03/22 13:55:46;;;;;;;10.52;3.50;;;;;;;;;;4952507;28;20050;-73
2024/03/22 13:58:15;;;;;;;7.38;3.28;;;;;;;;;;5007146;28;20129;-71
2024/03/22 14:00:41;;;;;;;7.18;3.20;;;;;;;;;;4987785;28;20117;-69
2024/03/22 14:03:08;;;;;;;9.65;3.60;;;;;;;;;;4979542;28;20054;-72
2024/03/22 14:05:38;;;;;;;8.00;2.85;;;;;;;;;;4967532;28;20068;-72
2024/03/22 14:08:07;;;;;;;9.93;2.78;;;;;;;;;;4978948;28;20077;-72
2024/03/22 14:10:33;;;;;;;8.77;2.53;;;;;;;;;;4967827;28;20137;-72
2024/03/22 14:13:00;;;;;;;5.53;2.17;;;;;;;;;;4976301;28;20141;-70
2024/03/22 14:15:31;;;;;;;5.97;2.45;;;;;;;;;;4967503;28;20058;-70
2024/03/22 14:17:58;;;;;;;7.93;2.40;;;;;;;;;;4974604;28;20058;-71
2024/03/22 14:20:27;;;;;;;6.22;2.20;;;;;;;;;;4993312;28;20054;-70
2024/03/22 14:22:55;;;;;;;7.97;2.88;;;;;;;;;;4981398;28;20057;-71
2024/03/22 14:25:21;;;;;;;7.55;3.05;;;;;;;;;;4975123;28;20050;-70